Time;durP1;ratioP1;P1;durP2;ratioP2;P2;SDS_P1;SDS_P2;PMS_P1;PMS_P2;Temp;Humidity;BMP_temperature;BMP_pressure;BME280_temperature;BME280_humidity;BME280_pressure;Samples;Min_cycle;Max_cycle;Signal;HPM_P1;HPM_P2
2022/04/01 00:02:06;;;;;;;5.95;2.70;;;;;;;;;;5068330;28;20040;-77
2022/04/01 00:04:32;;;;;;;6.55;2.75;;;;;;;;;;5067038;28;20125;-78
2022/04/01 00:06:58;;;;;;;7.03;2.40;;;;;;;;;;5052166;28;20383;-77
2022/04/01 00:09:24;;;;;;;5.32;2.10;;;;;;;;;;5068590;28;20127;-82
2022/04/01 00:11:51;;;;;;;4.43;2.50;;;;;;;;;;5051682;28;20049;-83
2022/04/01 00:14:17;;;;;;;4.78;2.00;;;;;;;;;;5068506;28;20403;-79
2022/04/01 00:16:43;;;;;;;5.43;2.10;;;;;;;;;;5068046;28;20051;-78
2022/04/01 00:19:12;;;;;;;5.03;2.13;;;;;;;;;;5050953;28;20067;-84
2022/04/01 00:21:39;;;;;;;5.60;2.17;;;;;;;;;;5067396;28;20045;-79
2022/04/01 00:24:06;;;;;;;4.68;1.75;;;;;;;;;;5065922;28;20040;-80
2022/04/01 00:26:32;;;;;;;3.65;2.05;;;;;;;;;;5068502;28;20072;-77
2022/04/01 00:28:58;;;;;;;4.72;1.90;;;;;;;;;;5051921;28;20443;-77
2022/04/01 00:31:24;;;;;;;5.60;2.20;;;;;;;;;;5068095;28;20072;-77
2022/04/01 00:34:15;;;;;;;4.95;2.08;;;;;;;;;;5051102;28;20137;-80
2022/04/01 00:36:36;;;;;;;6.35;2.22;;;;;;;;;;5067614;28;20044;-79
2022/04/01 00:39:03;;;;;;;4.07;1.90;;;;;;;;;;5067841;28;20036;-78
2022/04/01 00:41:29;;;;;;;4.50;2.20;;;;;;;;;;5051193;28;20508;-78
2022/04/01 00:44:12;;;;;;;5.50;1.88;;;;;;;;;;5069397;28;20093;-77
2022/04/01 00:46:40;;;;;;;5.20;2.10;;;;;;;;;;5067580;28;20093;-79
2022/04/01 00:49:06;;;;;;;3.40;1.85;;;;;;;;;;5051158;28;20037;-77
2022/04/01 00:51:32;;;;;;;5.05;2.10;;;;;;;;;;5067849;28;20028;-79
2022/04/01 00:53:58;;;;;;;5.20;1.95;;;;;;;;;;5067888;28;20570;-77
2022/04/01 00:56:30;;;;;;;4.47;2.30;;;;;;;;;;5067662;28;20495;-77
2022/04/01 00:58:57;;;;;;;5.05;2.13;;;;;;;;;;5067539;28;20048;-78
2022/04/01 01:01:24;;;;;;;4.82;2.20;;;;;;;;;;5067474;28;20058;-77
2022/04/01 01:03:50;;;;;;;5.15;2.55;;;;;;;;;;5067263;28;20056;-81
2022/04/01 01:06:20;;;;;;;5.28;1.85;;;;;;;;;;5050448;28;20048;-78
2022/04/01 01:08:47;;;;;;;5.70;2.40;;;;;;;;;;5050608;28;20032;-78
2022/04/01 01:11:14;;;;;;;5.28;2.15;;;;;;;;;;5068728;28;20051;-78
2022/04/01 01:13:41;;;;;;;4.38;2.33;;;;;;;;;;5070981;28;20048;-77
2022/04/01 01:16:07;;;;;;;4.20;2.30;;;;;;;;;;5071081;28;20080;-77
2022/04/01 01:18:33;;;;;;;5.15;2.00;;;;;;;;;;5070998;28;20098;-80
2022/04/01 01:20:59;;;;;;;4.53;1.90;;;;;;;;;;5054016;28;20040;-79
2022/04/01 01:23:32;;;;;;;4.25;2.08;;;;;;;;;;5070856;28;20098;-78
2022/04/01 01:25:59;;;;;;;3.53;1.80;;;;;;;;;;5054499;28;20484;-78
2022/04/01 01:28:27;;;;;;;5.13;2.30;;;;;;;;;;5071284;28;20114;-78
2022/04/01 01:30:53;;;;;;;7.28;2.45;;;;;;;;;;5070446;28;20060;-78
2022/04/01 01:33:25;;;;;;;4.13;2.05;;;;;;;;;;5071090;28;20045;-78
2022/04/01 01:35:51;;;;;;;4.55;2.30;;;;;;;;;;5071898;28;20063;-79
2022/04/01 01:38:18;;;;;;;3.67;2.05;;;;;;;;;;5054679;28;20036;-79
2022/04/01 01:40:45;;;;;;;4.65;2.17;;;;;;;;;;5070914;28;20146;-83
2022/04/01 01:43:11;;;;;;;5.20;2.00;;;;;;;;;;5071781;28;20040;-79
2022/04/01 01:45:37;;;;;;;6.35;1.90;;;;;;;;;;5068256;28;20037;-79
2022/04/01 01:48:03;;;;;;;5.68;2.22;;;;;;;;;;5071112;28;20786;-78
2022/04/01 01:55:59;;;;;;;5.10;2.20;;;;;;;;;;5070885;28;20052;-78
2022/04/01 01:58:27;;;;;;;5.07;1.90;;;;;;;;;;5070487;28;20063;-79
2022/04/01 02:00:54;;;;;;;5.47;2.08;;;;;;;;;;5049744;28;20488;-78
2022/04/01 02:03:20;;;;;;;3.95;1.80;;;;;;;;;;5071383;28;20427;-77
2022/04/01 02:05:48;;;;;;;6.15;1.30;;;;;;;;;;5069375;28;20076;-82
2022/04/01 02:08:14;;;;;;;5.85;2.10;;;;;;;;;;5070636;28;20063;-78
2022/04/01 02:10:40;;;;;;;3.78;1.73;;;;;;;;;;5070213;28;20072;-77
2022/04/01 02:13:07;;;;;;;4.65;1.70;;;;;;;;;;5070332;28;20040;-79
2022/04/01 02:15:33;;;;;;;4.60;1.67;;;;;;;;;;5069934;28;20044;-78
2022/04/01 02:17:59;;;;;;;4.22;2.30;;;;;;;;;;5070148;28;20037;-78
2022/04/01 02:20:25;;;;;;;5.15;1.70;;;;;;;;;;5069942;28;20047;-80
2022/04/01 02:22:53;;;;;;;4.68;1.70;;;;;;;;;;5068992;28;20458;-78
2022/04/01 02:25:19;;;;;;;2.72;1.48;;;;;;;;;;5070107;28;20052;-79
2022/04/01 02:27:45;;;;;;;4.32;1.65;;;;;;;;;;5069817;28;20032;-80
2022/04/01 02:30:11;;;;;;;4.65;1.90;;;;;;;;;;5069499;28;20404;-78
2022/04/01 02:32:38;;;;;;;4.07;1.80;;;;;;;;;;5069191;28;20048;-80
2022/04/01 02:35:05;;;;;;;5.65;1.83;;;;;;;;;;5070427;28;20507;-79
2022/04/01 02:37:31;;;;;;;4.35;1.98;;;;;;;;;;5052957;28;20064;-78
2022/04/01 02:39:58;;;;;;;4.00;1.85;;;;;;;;;;5069988;28;20044;-77
2022/04/01 02:42:24;;;;;;;5.88;1.63;;;;;;;;;;5070181;28;20173;-77
2022/04/01 02:44:50;;;;;;;2.92;1.52;;;;;;;;;;5053066;28;20037;-78
2022/04/01 02:47:16;;;;;;;3.70;1.40;;;;;;;;;;5069947;28;20123;-78
2022/04/01 02:49:43;;;;;;;4.50;1.90;;;;;;;;;;5052635;28;20071;-79
2022/04/01 02:52:09;;;;;;;5.13;1.95;;;;;;;;;;5069389;28;20127;-79
2022/04/01 02:54:35;;;;;;;3.40;1.40;;;;;;;;;;5052831;28;20369;-77
2022/04/01 02:57:02;;;;;;;7.45;1.90;;;;;;;;;;5069633;28;20215;-79
2022/04/01 02:59:29;;;;;;;4.30;1.67;;;;;;;;;;5068790;28;20040;-78
2022/04/01 03:01:55;;;;;;;4.97;1.85;;;;;;;;;;5068434;28;20048;-78
2022/04/01 03:04:22;;;;;;;2.80;1.65;;;;;;;;;;5070557;28;20090;-77
2022/04/01 03:06:49;;;;;;;4.68;1.73;;;;;;;;;;5069007;28;20037;-79
2022/04/01 03:09:15;;;;;;;5.82;2.00;;;;;;;;;;5069405;28;20492;-77
2022/04/01 03:11:42;;;;;;;5.35;1.60;;;;;;;;;;5052736;28;20480;-78
2022/04/01 03:14:09;;;;;;;3.78;1.77;;;;;;;;;;5069290;28;20621;-77
2022/04/01 03:16:39;;;;;;;6.95;2.42;;;;;;;;;;5052321;28;20055;-76
2022/04/01 03:19:08;;;;;;;5.32;1.95;;;;;;;;;;5052423;28;20075;-77
2022/04/01 03:21:35;;;;;;;4.28;1.60;;;;;;;;;;5052665;28;20373;-76
2022/04/01 03:24:02;;;;;;;5.63;2.28;;;;;;;;;;5069468;28;20495;-78
2022/04/01 03:26:29;;;;;;;4.55;1.80;;;;;;;;;;5068980;28;20131;-77
2022/04/01 03:28:55;;;;;;;4.32;2.00;;;;;;;;;;5070351;28;20412;-79
2022/04/01 03:31:21;;;;;;;4.53;2.10;;;;;;;;;;5068492;28;20055;-81
2022/04/01 03:33:47;;;;;;;4.45;1.70;;;;;;;;;;5051921;28;20048;-77
2022/04/01 03:36:14;;;;;;;4.43;1.90;;;;;;;;;;5069315;28;20032;-76
2022/04/01 03:38:41;;;;;;;5.50;1.65;;;;;;;;;;5068725;28;20476;-79
2022/04/01 03:41:08;;;;;;;4.10;1.70;;;;;;;;;;5068539;28;20068;-79
2022/04/01 03:43:35;;;;;;;5.43;1.70;;;;;;;;;;5068691;28;20036;-76
2022/04/01 03:46:05;;;;;;;5.55;1.70;;;;;;;;;;5052618;28;20119;-77
2022/04/01 03:48:42;;;;;;;6.13;1.80;;;;;;;;;;5052511;28;20036;-79
2022/04/01 03:51:09;;;;;;;9.85;1.77;;;;;;;;;;5069271;28;20040;-79
2022/04/01 03:53:35;;;;;;;6.72;1.67;;;;;;;;;;5068705;28;20043;-78
2022/04/01 03:56:06;;;;;;;5.28;1.60;;;;;;;;;;5069586;28;20044;-78
2022/04/01 03:58:33;;;;;;;5.95;1.77;;;;;;;;;;5069733;28;20056;-79
2022/04/01 04:01:01;;;;;;;6.53;2.20;;;;;;;;;;5068803;28;20042;-79
2022/04/01 04:03:29;;;;;;;3.97;1.60;;;;;;;;;;5069418;28;20056;-78
2022/04/01 04:05:56;;;;;;;3.60;1.95;;;;;;;;;;5068650;28;20077;-78
2022/04/01 04:08:22;;;;;;;6.28;1.90;;;;;;;;;;5053369;28;20499;-79
2022/04/01 04:10:49;;;;;;;4.20;1.70;;;;;;;;;;5069311;28;20115;-79
2022/04/01 04:13:16;;;;;;;6.85;1.85;;;;;;;;;;5070250;28;20085;-79
2022/04/01 04:15:49;;;;;;;4.80;1.90;;;;;;;;;;5069516;28;20091;-78
2022/04/01 04:18:16;;;;;;;5.78;1.80;;;;;;;;;;5071225;28;20039;-78
2022/04/01 04:21:10;;;;;;;5.05;1.73;;;;;;;;;;5069633;28;20086;-78
2022/04/01 04:23:39;;;;;;;4.18;1.73;;;;;;;;;;5050584;28;20056;-79
2022/04/01 04:26:12;;;;;;;4.35;1.70;;;;;;;;;;5053242;28;20396;-78
2022/04/01 04:28:46;;;;;;;3.22;1.75;;;;;;;;;;5053781;28;20055;-79
2022/04/01 04:31:12;;;;;;;5.72;1.70;;;;;;;;;;5068635;28;20037;-78
2022/04/01 04:33:44;;;;;;;5.72;1.83;;;;;;;;;;5069493;28;20209;-79
2022/04/01 04:36:11;;;;;;;4.72;1.83;;;;;;;;;;5069759;28;20048;-79
2022/04/01 04:38:38;;;;;;;6.88;1.70;;;;;;;;;;5069413;28;20040;-79
2022/04/01 04:41:08;;;;;;;4.22;1.90;;;;;;;;;;5071033;28;20028;-79
2022/04/01 04:43:41;;;;;;;7.35;2.05;;;;;;;;;;5068055;28;20052;-79
2022/04/01 04:46:08;;;;;;;7.10;1.60;;;;;;;;;;5052582;28;20032;-79
2022/04/01 04:48:35;;;;;;;4.97;1.73;;;;;;;;;;5071299;28;20041;-79
2022/04/01 04:51:05;;;;;;;6.20;1.90;;;;;;;;;;5071669;28;20049;-79
2022/04/01 04:53:34;;;;;;;3.38;1.50;;;;;;;;;;5072272;28;20040;-79
2022/04/01 04:56:00;;;;;;;6.82;1.90;;;;;;;;;;5068969;28;20106;-78
2022/04/01 04:58:30;;;;;;;4.18;1.50;;;;;;;;;;5073108;28;20131;-79
2022/04/01 05:01:01;;;;;;;3.97;1.30;;;;;;;;;;5073207;28;20454;-78
2022/04/01 05:03:30;;;;;;;4.70;1.42;;;;;;;;;;5072851;28;20041;-78
2022/04/01 05:05:57;;;;;;;4.82;1.60;;;;;;;;;;5056441;28;20041;-78
2022/04/01 05:08:42;;;;;;;5.25;1.58;;;;;;;;;;5072745;28;20115;-77
2022/04/01 05:11:27;;;;;;;4.70;1.48;;;;;;;;;;5072926;28;20032;-79
2022/04/01 05:14:12;;;;;;;2.90;1.10;;;;;;;;;;5071080;28;20052;-77
2022/04/01 05:16:44;;;;;;;6.97;1.42;;;;;;;;;;5071026;28;20063;-78
2022/04/01 05:19:12;;;;;;;3.30;1.48;;;;;;;;;;5071409;28;20397;-78
2022/04/01 05:21:56;;;;;;;8.75;1.45;;;;;;;;;;5070814;28;20036;-77
2022/04/01 05:24:27;;;;;;;2.63;1.15;;;;;;;;;;5071352;28;20419;-78
2022/04/01 05:26:55;;;;;;;5.20;1.63;;;;;;;;;;5071340;28;20051;-79
2022/04/01 05:29:25;;;;;;;4.35;1.83;;;;;;;;;;5072462;28;20166;-77
2022/04/01 05:31:54;;;;;;;5.40;1.40;;;;;;;;;;5071031;28;20055;-77
2022/04/01 05:34:22;;;;;;;3.85;1.13;;;;;;;;;;5071308;28;20053;-77
2022/04/01 05:36:50;;;;;;;3.42;1.25;;;;;;;;;;5071232;28;20052;-78
2022/04/01 05:39:17;;;;;;;5.10;1.20;;;;;;;;;;5071061;28;20522;-77
2022/04/01 05:41:45;;;;;;;2.75;1.23;;;;;;;;;;5037386;28;20041;-77
2022/04/01 05:44:12;;;;;;;6.25;1.45;;;;;;;;;;5071075;28;20391;-79
2022/04/01 05:46:39;;;;;;;2.80;1.00;;;;;;;;;;5053966;28;20039;-78
2022/04/01 05:49:05;;;;;;;6.97;1.55;;;;;;;;;;5053994;28;20089;-78
2022/04/01 05:51:33;;;;;;;4.60;1.45;;;;;;;;;;5053943;28;20033;-77
2022/04/01 05:54:00;;;;;;;5.50;1.38;;;;;;;;;;5069959;28;20090;-77
2022/04/01 05:56:27;;;;;;;4.25;1.20;;;;;;;;;;5071007;28;20101;-77
2022/04/01 05:58:54;;;;;;;3.88;1.50;;;;;;;;;;5070466;28;20033;-76
2022/04/01 06:01:30;;;;;;;5.47;1.52;;;;;;;;;;5054211;28;20047;-79
2022/04/01 06:04:05;;;;;;;3.83;1.33;;;;;;;;;;5051058;28;20127;-77
2022/04/01 06:06:34;;;;;;;3.65;1.20;;;;;;;;;;5070866;28;20476;-77
2022/04/01 06:09:04;;;;;;;3.35;1.55;;;;;;;;;;5070208;28;20043;-77
2022/04/01 06:11:33;;;;;;;4.30;1.20;;;;;;;;;;5070570;28;20110;-80
2022/04/01 06:14:12;;;;;;;4.65;1.20;;;;;;;;;;5070723;28;20052;-78
2022/04/01 06:16:44;;;;;;;3.70;1.33;;;;;;;;;;5070921;28;20074;-77
2022/04/01 06:19:22;;;;;;;5.20;1.20;;;;;;;;;;5054674;28;20032;-81
2022/04/01 06:21:54;;;;;;;6.25;1.33;;;;;;;;;;5071463;28;20048;-79
2022/04/01 06:24:31;;;;;;;2.97;1.23;;;;;;;;;;5070653;28;20036;-79
2022/04/01 06:26:58;;;;;;;3.47;1.40;;;;;;;;;;5054094;28;20043;-77
2022/04/01 06:29:24;;;;;;;3.17;1.30;;;;;;;;;;5071052;28;20040;-77
2022/04/01 06:31:57;;;;;;;3.15;1.50;;;;;;;;;;5053615;28;20056;-77
2022/04/01 06:34:27;;;;;;;3.55;1.20;;;;;;;;;;5070671;28;20059;-76
2022/04/01 06:36:57;;;;;;;2.72;1.25;;;;;;;;;;5052873;28;20078;-76
2022/04/01 06:39:42;;;;;;;4.07;1.40;;;;;;;;;;5069934;28;20090;-76
2022/04/01 06:42:09;;;;;;;6.65;1.17;;;;;;;;;;5053070;28;20047;-75
2022/04/01 06:44:35;;;;;;;6.10;1.35;;;;;;;;;;5069294;28;20048;-77
2022/04/01 06:47:02;;;;;;;5.40;1.65;;;;;;;;;;5069935;28;20545;-76
2022/04/01 06:49:28;;;;;;;6.60;1.40;;;;;;;;;;5069534;28;20488;-76
2022/04/01 06:51:54;;;;;;;5.15;1.48;;;;;;;;;;5052498;28;20041;-77
2022/04/01 06:54:20;;;;;;;3.28;1.15;;;;;;;;;;5069156;28;20040;-75
2022/04/01 06:56:46;;;;;;;4.78;1.40;;;;;;;;;;5069008;28;20051;-80
2022/04/01 06:59:13;;;;;;;4.20;1.40;;;;;;;;;;5053267;28;20043;-79
2022/04/01 07:01:39;;;;;;;3.30;1.25;;;;;;;;;;5069426;28;20044;-78
2022/04/01 07:04:05;;;;;;;2.63;1.20;;;;;;;;;;5069909;28;20488;-79
2022/04/01 07:06:32;;;;;;;5.07;1.52;;;;;;;;;;5053263;28;20035;-81
2022/04/01 07:08:58;;;;;;;6.25;1.45;;;;;;;;;;5069154;28;20032;-77
2022/04/01 07:11:25;;;;;;;3.95;1.10;;;;;;;;;;5070135;28;20415;-78
2022/04/01 07:13:52;;;;;;;3.60;1.10;;;;;;;;;;5068895;28;20051;-76
2022/04/01 07:16:18;;;;;;;3.30;1.40;;;;;;;;;;5069285;28;20044;-76
2022/04/01 07:18:44;;;;;;;4.25;1.50;;;;;;;;;;5068810;28;20036;-76
2022/04/01 07:21:10;;;;;;;4.68;1.60;;;;;;;;;;5068832;28;20037;-75
2022/04/01 07:23:37;;;;;;;3.53;1.50;;;;;;;;;;5068493;28;20044;-76
2022/04/01 07:26:03;;;;;;;4.63;1.20;;;;;;;;;;5069220;28;20071;-75
2022/04/01 07:28:29;;;;;;;4.13;1.30;;;;;;;;;;5068601;28;20087;-76
2022/04/01 07:30:55;;;;;;;3.28;1.40;;;;;;;;;;5051812;28;20444;-75
2022/04/01 07:33:22;;;;;;;3.60;1.10;;;;;;;;;;5068391;28;20052;-75
2022/04/01 07:35:49;;;;;;;2.53;1.33;;;;;;;;;;5051163;28;20052;-75
2022/04/01 07:38:15;;;;;;;3.15;1.45;;;;;;;;;;5068789;28;20392;-76
2022/04/01 07:40:42;;;;;;;6.90;1.30;;;;;;;;;;5068466;28;20538;-75
2022/04/01 07:43:09;;;;;;;4.20;1.20;;;;;;;;;;5069102;28;20067;-79
2022/04/01 07:45:37;;;;;;;3.05;1.02;;;;;;;;;;5068135;28;20098;-77
2022/04/01 07:48:03;;;;;;;3.60;1.25;;;;;;;;;;5069955;28;20103;-76
2022/04/01 07:50:29;;;;;;;4.43;1.50;;;;;;;;;;5068876;28;20373;-76
2022/04/01 07:52:56;;;;;;;3.42;1.50;;;;;;;;;;5069014;28;20135;-76
2022/04/01 07:55:23;;;;;;;5.25;1.63;;;;;;;;;;5068488;28;20044;-76
2022/04/01 07:57:50;;;;;;;2.65;1.20;;;;;;;;;;5068293;28;20052;-75
2022/04/01 08:00:17;;;;;;;4.07;1.30;;;;;;;;;;5068349;28;20119;-77
2022/04/01 08:02:43;;;;;;;3.58;1.27;;;;;;;;;;5068318;28;20190;-77
2022/04/01 08:05:09;;;;;;;3.20;1.23;;;;;;;;;;5052236;28;20388;-79
2022/04/01 08:07:36;;;;;;;2.88;1.10;;;;;;;;;;5068543;28;20036;-77
2022/04/01 08:10:04;;;;;;;3.08;1.25;;;;;;;;;;5069018;28;20032;-75
2022/04/01 08:12:33;;;;;;;4.55;1.75;;;;;;;;;;5068683;28;20094;-81
2022/04/01 08:14:59;;;;;;;6.20;1.40;;;;;;;;;;5068562;28;20040;-76
2022/04/01 08:17:25;;;;;;;5.25;1.15;;;;;;;;;;5068040;28;20048;-76
2022/04/01 08:19:51;;;;;;;5.93;1.58;;;;;;;;;;5067644;28;20044;-75
2022/04/01 08:22:18;;;;;;;3.70;1.10;;;;;;;;;;5071047;28;20043;-75
2022/04/01 08:24:44;;;;;;;3.53;1.30;;;;;;;;;;5072253;28;20051;-77
2022/04/01 08:27:11;;;;;;;4.50;1.15;;;;;;;;;;5072168;28;20040;-75
2022/04/01 08:29:38;;;;;;;4.70;1.10;;;;;;;;;;5072064;28;20484;-76
2022/04/01 08:32:06;;;;;;;3.03;1.25;;;;;;;;;;5071796;28;20057;-76
2022/04/01 08:34:33;;;;;;;3.85;1.50;;;;;;;;;;5071889;28;20058;-74
2022/04/01 08:36:59;;;;;;;3.95;1.60;;;;;;;;;;5071446;28;20040;-76
2022/04/01 08:39:26;;;;;;;4.60;1.40;;;;;;;;;;5055366;28;20094;-77
2022/04/01 08:41:52;;;;;;;3.75;1.40;;;;;;;;;;5071674;28;20098;-75
2022/04/01 08:44:18;;;;;;;3.38;1.33;;;;;;;;;;5055205;28;20047;-75
2022/04/01 08:46:44;;;;;;;3.53;1.40;;;;;;;;;;5071563;28;20043;-77
2022/04/01 08:49:10;;;;;;;6.30;1.50;;;;;;;;;;5071944;28;20158;-74
2022/04/01 08:51:36;;;;;;;3.20;1.33;;;;;;;;;;5071619;28;20044;-76
2022/04/01 08:54:04;;;;;;;5.05;1.63;;;;;;;;;;5071942;28;20563;-77
2022/04/01 08:56:30;;;;;;;3.90;1.40;;;;;;;;;;5071326;28;20028;-75
2022/04/01 08:58:56;;;;;;;5.15;1.50;;;;;;;;;;5071139;28;20076;-77
2022/04/01 09:01:23;;;;;;;4.78;1.60;;;;;;;;;;5071546;28;20115;-76
2022/04/01 09:03:49;;;;;;;2.78;1.45;;;;;;;;;;5071578;28;20068;-78
2022/04/01 09:06:19;;;;;;;4.80;1.70;;;;;;;;;;5054943;28;20048;-77
2022/04/01 09:08:45;;;;;;;3.53;1.90;;;;;;;;;;5054613;28;20072;-76
2022/04/01 09:11:18;;;;;;;3.97;1.65;;;;;;;;;;5071933;28;20048;-78
2022/04/01 09:13:47;;;;;;;4.28;1.65;;;;;;;;;;5071064;28;20040;-78
2022/04/01 09:16:33;;;;;;;5.22;1.80;;;;;;;;;;5071683;28;20037;-77
2022/04/01 09:19:00;;;;;;;4.30;1.75;;;;;;;;;;5071837;28;20058;-78
2022/04/01 09:21:30;;;;;;;3.63;1.88;;;;;;;;;;5073108;28;20131;-81
2022/04/01 09:23:57;;;;;;;4.90;1.88;;;;;;;;;;5071628;28;20037;-78
2022/04/01 09:26:31;;;;;;;5.97;2.15;;;;;;;;;;5071750;28;20076;-78
2022/04/01 09:28:58;;;;;;;4.85;1.85;;;;;;;;;;5071331;28;20040;-80
2022/04/01 09:31:25;;;;;;;4.72;2.20;;;;;;;;;;5071725;28;20472;-80
2022/04/01 09:33:52;;;;;;;4.72;2.20;;;;;;;;;;5071483;28;20048;-78
2022/04/01 09:36:20;;;;;;;5.85;2.10;;;;;;;;;;5068878;28;20045;-76
2022/04/01 09:39:06;;;;;;;5.57;2.03;;;;;;;;;;5069056;28;20518;-78
2022/04/01 09:41:32;;;;;;;3.53;1.83;;;;;;;;;;5071226;28;20076;-78
2022/04/01 09:44:09;;;;;;;4.70;2.33;;;;;;;;;;5071517;28;20043;-77
2022/04/01 09:46:42;;;;;;;4.03;2.13;;;;;;;;;;5071372;28;20033;-77
2022/04/01 09:49:08;;;;;;;4.43;2.30;;;;;;;;;;5072317;28;20040;-79
2022/04/01 09:51:35;;;;;;;4.75;2.20;;;;;;;;;;5071712;28;20480;-78
2022/04/01 09:54:02;;;;;;;5.10;2.50;;;;;;;;;;5070986;28;20047;-78
2022/04/01 09:56:59;;;;;;;7.05;2.50;;;;;;;;;;5070808;28;20072;-76
2022/04/01 09:59:31;;;;;;;5.07;2.70;;;;;;;;;;5055920;28;20052;-79
2022/04/01 10:01:59;;;;;;;5.38;2.50;;;;;;;;;;5071782;28;20068;-76
2022/04/01 10:04:25;;;;;;;5.65;2.80;;;;;;;;;;5070716;28;20036;-83
2022/04/01 10:06:52;;;;;;;6.03;3.08;;;;;;;;;;5070550;28;20040;-78
2022/04/01 10:09:21;;;;;;;6.15;3.33;;;;;;;;;;5071053;28;20043;-81
2022/04/01 10:11:49;;;;;;;8.13;3.40;;;;;;;;;;5070238;28;20123;-83
2022/04/01 10:14:16;;;;;;;5.65;3.42;;;;;;;;;;5072230;28;20064;-81
2022/04/01 10:16:44;;;;;;;6.00;2.67;;;;;;;;;;5070012;28;20111;-79
2022/04/01 10:19:14;;;;;;;5.70;2.78;;;;;;;;;;5071209;28;20409;-76
2022/04/01 10:21:44;;;;;;;4.88;2.80;;;;;;;;;;5070577;28;20041;-82
2022/04/01 10:24:16;;;;;;;8.27;2.70;;;;;;;;;;5072271;28;20079;-85
2022/04/01 10:26:46;;;;;;;5.85;2.80;;;;;;;;;;5070392;28;20055;-78
2022/04/01 10:29:12;;;;;;;5.38;2.80;;;;;;;;;;5071024;28;20040;-84
2022/04/01 10:31:39;;;;;;;4.30;2.60;;;;;;;;;;5053360;28;20063;-77
2022/04/01 10:34:25;;;;;;;7.70;2.65;;;;;;;;;;5071746;28;20036;-82
2022/04/01 10:36:55;;;;;;;4.80;2.30;;;;;;;;;;5070246;28;20083;-81
2022/04/01 10:39:21;;;;;;;4.22;2.53;;;;;;;;;;5070404;28;20039;-78
2022/04/01 10:42:06;;;;;;;4.75;2.20;;;;;;;;;;5070188;28;20484;-79
2022/04/01 10:44:55;;;;;;;4.55;2.28;;;;;;;;;;5070229;28;20123;-77
2022/04/01 10:47:22;;;;;;;4.57;2.10;;;;;;;;;;5071071;28;20040;-83
2022/04/01 10:52:34;;;;;;;4.35;2.10;;;;;;;;;;5072398;28;20036;-78
2022/04/01 10:55:05;;;;;;;3.33;1.85;;;;;;;;;;5071205;28;20041;-78
2022/04/01 10:57:32;;;;;;;3.83;2.10;;;;;;;;;;5069319;28;20052;-82
2022/04/01 10:59:59;;;;;;;3.92;2.00;;;;;;;;;;5071119;28;20040;-77
2022/04/01 11:02:26;;;;;;;4.50;1.88;;;;;;;;;;5070094;28;20044;-81
2022/04/01 11:04:53;;;;;;;4.22;1.83;;;;;;;;;;5069932;28;20422;-80
2022/04/01 11:07:22;;;;;;;5.68;2.10;;;;;;;;;;5069659;28;20032;-81
2022/04/01 11:09:50;;;;;;;2.92;1.80;;;;;;;;;;5052688;28;20091;-78
2022/04/01 11:12:16;;;;;;;5.25;2.00;;;;;;;;;;5069807;28;20511;-76
2022/04/01 11:15:09;;;;;;;4.18;2.15;;;;;;;;;;5069560;28;20369;-82
2022/04/01 11:17:36;;;;;;;4.65;2.08;;;;;;;;;;5053521;28;20051;-80
2022/04/01 11:20:09;;;;;;;3.78;2.25;;;;;;;;;;5068615;28;20402;-76
2022/04/01 11:22:47;;;;;;;4.30;2.03;;;;;;;;;;5069145;28;20052;-77
2022/04/01 11:25:35;;;;;;;3.83;2.00;;;;;;;;;;5053251;28;20369;-77
2022/04/01 11:28:01;;;;;;;6.80;2.10;;;;;;;;;;5068675;28;20254;-77
2022/04/01 11:30:28;;;;;;;3.65;1.70;;;;;;;;;;5068901;28;20050;-77
2022/04/01 11:33:00;;;;;;;3.75;1.90;;;;;;;;;;5068353;28;20056;-79
2022/04/01 11:35:30;;;;;;;5.20;2.20;;;;;;;;;;5068896;28;20055;-78
2022/04/01 11:37:57;;;;;;;4.28;2.15;;;;;;;;;;5051906;28;20503;-78
2022/04/01 11:40:27;;;;;;;3.40;1.90;;;;;;;;;;5069033;28;20041;-76
2022/04/01 11:43:03;;;;;;;5.10;2.00;;;;;;;;;;5052268;28;20064;-78
2022/04/01 11:45:33;;;;;;;3.35;1.85;;;;;;;;;;5068548;28;20039;-79
2022/04/01 11:48:00;;;;;;;3.58;1.80;;;;;;;;;;5068256;28;20119;-77
2022/04/01 11:50:26;;;;;;;4.70;2.00;;;;;;;;;;5068896;28;20467;-77
2022/04/01 11:52:55;;;;;;;3.45;1.90;;;;;;;;;;5068186;28;20341;-77
2022/04/01 11:55:22;;;;;;;4.10;1.75;;;;;;;;;;5066348;28;20040;-81
2022/04/01 11:57:49;;;;;;;3.95;1.88;;;;;;;;;;5051352;28;20044;-78
2022/04/01 12:00:17;;;;;;;4.38;2.00;;;;;;;;;;5068727;28;20275;-75
2022/04/01 12:02:44;;;;;;;4.43;2.10;;;;;;;;;;5068954;28;20634;-75
2022/04/01 12:05:11;;;;;;;3.97;2.00;;;;;;;;;;5068449;28;20090;-80
2022/04/01 12:10:39;;;;;;;3.80;1.85;;;;;;;;;;5030840;28;20087;-79
2022/04/01 12:13:08;;;;;;;5.57;1.92;;;;;;;;;;5074623;28;20067;-79
2022/04/01 12:15:35;;;;;;;4.47;1.80;;;;;;;;;;5068802;28;20051;-77
2022/04/01 12:18:05;;;;;;;3.30;1.80;;;;;;;;;;5051454;28;20072;-79
2022/04/01 12:20:31;;;;;;;2.30;1.55;;;;;;;;;;5068186;28;20045;-77
2022/04/01 12:23:01;;;;;;;5.15;1.80;;;;;;;;;;5067732;28;20036;-77
2022/04/01 12:25:31;;;;;;;3.70;1.80;;;;;;;;;;5068257;28;20032;-80
2022/04/01 12:27:59;;;;;;;4.03;1.60;;;;;;;;;;5051489;28;20033;-83
2022/04/01 12:30:32;;;;;;;3.70;1.65;;;;;;;;;;5068150;28;20040;-79
2022/04/01 12:33:00;;;;;;;3.03;1.70;;;;;;;;;;5067947;28;20527;-78
2022/04/01 12:35:26;;;;;;;3.83;1.92;;;;;;;;;;5068125;28;20102;-82
2022/04/01 12:38:09;;;;;;;4.78;1.80;;;;;;;;;;5067899;28;20098;-83
2022/04/01 12:40:45;;;;;;;5.05;2.05;;;;;;;;;;5051485;28;20043;-77
2022/04/01 12:43:30;;;;;;;4.53;1.80;;;;;;;;;;5067440;28;20480;-81
2022/04/01 12:46:04;;;;;;;4.53;1.95;;;;;;;;;;5068057;28;20491;-80
2022/04/01 12:48:30;;;;;;;5.35;1.80;;;;;;;;;;5068210;28;20048;-79
2022/04/01 12:51:03;;;;;;;4.28;1.70;;;;;;;;;;5067693;28;20048;-78
2022/04/01 12:53:32;;;;;;;3.58;1.90;;;;;;;;;;5068346;28;20052;-78
2022/04/01 12:56:17;;;;;;;5.55;1.80;;;;;;;;;;5067734;28;20097;-77
2022/04/01 12:59:04;;;;;;;4.47;2.03;;;;;;;;;;5068165;28;20037;-79
2022/04/01 13:01:30;;;;;;;;;;;;;;;;;;5050385;28;20487;-78
2022/04/01 13:03:57;;;;;;;4.75;1.85;;;;;;;;;;5067766;28;19948;-78
2022/04/01 13:06:28;;;;;;;2.85;1.80;;;;;;;;;;5068108;28;20032;-75
2022/04/01 13:09:06;;;;;;;4.28;1.40;;;;;;;;;;5071309;28;20043;-76
2022/04/01 13:11:35;;;;;;;3.25;1.52;;;;;;;;;;5072090;28;20438;-75
2022/04/01 13:14:02;;;;;;;4.95;1.60;;;;;;;;;;5071162;28;20045;-78
2022/04/01 13:16:38;;;;;;;3.50;1.67;;;;;;;;;;5071446;28;20044;-79
2022/04/01 13:19:21;;;;;;;6.25;1.70;;;;;;;;;;5071780;28;20040;-78
2022/04/01 13:21:48;;;;;;;4.15;2.00;;;;;;;;;;5071243;28;20082;-76
2022/04/01 13:24:18;;;;;;;5.35;2.30;;;;;;;;;;5071414;28;20098;-76
2022/04/01 13:26:44;;;;;;;4.32;1.88;;;;;;;;;;5071697;28;20036;-76
2022/04/01 13:29:10;;;;;;;3.90;1.40;;;;;;;;;;5071021;28;20041;-76
2022/04/01 13:31:37;;;;;;;2.72;1.30;;;;;;;;;;5071415;28;20166;-81
2022/04/01 13:34:03;;;;;;;4.75;1.40;;;;;;;;;;5054985;28;20048;-77
2022/04/01 13:36:30;;;;;;;3.47;1.50;;;;;;;;;;5071423;28;20055;-76
2022/04/01 13:38:56;;;;;;;2.50;1.55;;;;;;;;;;5070841;28;20048;-76
2022/04/01 13:41:22;;;;;;;3.55;1.30;;;;;;;;;;5054663;28;20514;-76
2022/04/01 13:43:48;;;;;;;3.13;1.60;;;;;;;;;;5070714;28;20036;-85
2022/04/01 13:46:15;;;;;;;3.08;1.40;;;;;;;;;;5054366;28;20033;-77
2022/04/01 13:48:41;;;;;;;3.95;1.60;;;;;;;;;;5071258;28;20452;-78
2022/04/01 13:51:07;;;;;;;3.92;1.73;;;;;;;;;;5069783;28;20052;-82
2022/04/01 13:53:33;;;;;;;6.07;1.88;;;;;;;;;;5070527;28;20382;-84
2022/04/01 13:55:59;;;;;;;3.95;1.63;;;;;;;;;;5053745;28;20083;-77
2022/04/01 13:58:26;;;;;;;4.80;1.65;;;;;;;;;;5070410;28;20040;-76
2022/04/01 14:00:52;;;;;;;5.97;1.73;;;;;;;;;;5053658;28;20044;-79
2022/04/01 14:03:18;;;;;;;5.32;1.60;;;;;;;;;;5054448;28;20511;-76
2022/04/01 14:05:45;;;;;;;2.92;1.38;;;;;;;;;;5070532;28;20036;-76
2022/04/01 14:08:11;;;;;;;5.55;1.52;;;;;;;;;;5070400;28;20068;-77
2022/04/01 14:10:37;;;;;;;4.25;1.38;;;;;;;;;;5070787;28;20400;-77
2022/04/01 14:13:03;;;;;;;3.70;1.40;;;;;;;;;;5053696;28;20041;-77
2022/04/01 14:15:30;;;;;;;2.58;1.40;;;;;;;;;;5070638;28;20495;-80
2022/04/01 14:17:56;;;;;;;4.50;1.40;;;;;;;;;;5052946;28;20051;-78
2022/04/01 14:20:22;;;;;;;3.33;1.30;;;;;;;;;;5069928;28;20125;-80
2022/04/01 14:22:48;;;;;;;4.00;1.50;;;;;;;;;;5070029;28;20090;-75
2022/04/01 14:25:14;;;;;;;3.42;1.63;;;;;;;;;;5070396;28;20043;-77
2022/04/01 14:27:40;;;;;;;3.92;1.17;;;;;;;;;;5070370;28;20036;-80
2022/04/01 14:30:18;;;;;;;4.25;1.40;;;;;;;;;;5070089;28;20678;-77
2022/04/01 14:32:48;;;;;;;4.10;1.20;;;;;;;;;;5055236;28;20060;-83
2022/04/01 14:35:14;;;;;;;4.70;1.30;;;;;;;;;;5070410;28;20045;-78
2022/04/01 14:37:41;;;;;;;2.90;1.20;;;;;;;;;;5070187;28;20044;-76
2022/04/01 14:40:07;;;;;;;4.20;1.30;;;;;;;;;;5069930;28;20040;-78
2022/04/01 14:42:33;;;;;;;2.88;1.20;;;;;;;;;;5053240;28;20102;-76
2022/04/01 14:45:01;;;;;;;4.53;1.42;;;;;;;;;;5070697;28;20040;-78
2022/04/01 14:47:27;;;;;;;4.95;1.10;;;;;;;;;;5037056;28;20040;-77
2022/04/01 14:49:54;;;;;;;3.70;1.42;;;;;;;;;;5053280;28;20547;-79
2022/04/01 14:52:20;;;;;;;5.20;1.20;;;;;;;;;;5052782;28;20066;-81
2022/04/01 14:54:46;;;;;;;4.25;1.30;;;;;;;;;;5069472;28;20044;-80
2022/04/01 14:57:13;;;;;;;3.75;1.15;;;;;;;;;;5052792;28;20036;-76
2022/04/01 14:59:39;;;;;;;2.67;1.10;;;;;;;;;;5069282;28;20040;-78
2022/04/01 15:02:06;;;;;;;2.92;1.13;;;;;;;;;;5069094;28;20048;-77
2022/04/01 15:04:32;;;;;;;5.45;1.30;;;;;;;;;;5069439;28;20037;-77